sensor_id;sensor_type;location;lat;lon;timestamp;P1;durP1;ratioP1;P2;durP2;ratioP2
7529;SDS011;3806;52.270;10.544;2022-07-30T00:01:58;4.50;;;2.08;;
7529;SDS011;3806;52.270;10.544;2022-07-30T00:04:24;5.95;;;2.58;;
7529;SDS011;3806;52.270;10.544;2022-07-30T00:06:49;3.10;;;2.03;;
7529;SDS011;3806;52.270;10.544;2022-07-30T00:09:15;4.97;;;2.03;;
7529;SDS011;3806;52.270;10.544;2022-07-30T00:11:41;6.35;;;2.25;;
7529;SDS011;3806;52.270;10.544;2022-07-30T00:14:06;3.38;;;1.63;;
7529;SDS011;3806;52.270;10.544;2022-07-30T00:16:32;4.35;;;2.08;;
7529;SDS011;3806;52.270;10.544;2022-07-30T00:18:58;4.93;;;2.03;;
7529;SDS011;3806;52.270;10.544;2022-07-30T00:21:23;4.03;;;2.03;;
7529;SDS011;3806;52.270;10.544;2022-07-30T00:23:49;5.10;;;1.95;;
7529;SDS011;3806;52.270;10.544;2022-07-30T00:26:14;4.00;;;2.03;;
7529;SDS011;3806;52.270;10.544;2022-07-30T00:28:40;3.83;;;1.83;;
7529;SDS011;3806;52.270;10.544;2022-07-30T00:31:06;2.85;;;1.70;;
7529;SDS011;3806;52.270;10.544;2022-07-30T00:33:31;5.85;;;2.05;;
7529;SDS011;3806;52.270;10.544;2022-07-30T00:35:57;5.55;;;2.00;;
7529;SDS011;3806;52.270;10.544;2022-07-30T00:38:22;3.92;;;2.03;;
7529;SDS011;3806;52.270;10.544;2022-07-30T00:40:48;5.80;;;2.17;;
7529;SDS011;3806;52.270;10.544;2022-07-30T00:43:14;5.43;;;2.28;;
7529;SDS011;3806;52.270;10.544;2022-07-30T00:45:41;8.15;;;2.13;;
7529;SDS011;3806;52.270;10.544;2022-07-30T00:48:07;4.45;;;2.13;;
7529;SDS011;3806;52.270;10.544;2022-07-30T00:50:34;4.22;;;2.03;;
7529;SDS011;3806;52.270;10.544;2022-07-30T00:52:59;3.22;;;2.22;;
7529;SDS011;3806;52.270;10.544;2022-07-30T00:55:25;4.50;;;2.20;;
7529;SDS011;3806;52.270;10.544;2022-07-30T00:57:51;6.82;;;2.25;;
7529;SDS011;3806;52.270;10.544;2022-07-30T01:00:17;4.47;;;1.90;;
7529;SDS011;3806;52.270;10.544;2022-07-30T01:02:43;6.20;;;2.22;;
7529;SDS011;3806;52.270;10.544;2022-07-30T01:05:09;6.30;;;2.25;;
7529;SDS011;3806;52.270;10.544;2022-07-30T01:07:35;9.38;;;2.10;;
7529;SDS011;3806;52.270;10.544;2022-07-30T01:10:01;3.22;;;2.15;;
7529;SDS011;3806;52.270;10.544;2022-07-30T01:12:26;2.85;;;2.13;;
7529;SDS011;3806;52.270;10.544;2022-07-30T01:14:54;3.00;;;2.00;;
7529;SDS011;3806;52.270;10.544;2022-07-30T01:17:22;4.10;;;2.40;;
7529;SDS011;3806;52.270;10.544;2022-07-30T01:19:48;3.33;;;2.22;;
7529;SDS011;3806;52.270;10.544;2022-07-30T01:25:07;4.50;;;2.00;;
7529;SDS011;3806;52.270;10.544;2022-07-30T01:27:51;4.32;;;2.13;;
7529;SDS011;3806;52.270;10.544;2022-07-30T01:30:21;9.10;;;2.38;;
7529;SDS011;3806;52.270;10.544;2022-07-30T01:32:49;5.93;;;2.28;;
7529;SDS011;3806;52.270;10.544;2022-07-30T01:35:18;7.75;;;2.42;;
7529;SDS011;3806;52.270;10.544;2022-07-30T01:37:45;8.70;;;2.45;;
7529;SDS011;3806;52.270;10.544;2022-07-30T01:40:13;5.50;;;2.72;;
7529;SDS011;3806;52.270;10.544;2022-07-30T01:42:39;5.38;;;2.60;;
7529;SDS011;3806;52.270;10.544;2022-07-30T01:45:06;7.88;;;2.70;;
7529;SDS011;3806;52.270;10.544;2022-07-30T01:47:33;6.57;;;3.35;;
7529;SDS011;3806;52.270;10.544;2022-07-30T01:50:01;6.07;;;2.60;;
7529;SDS011;3806;52.270;10.544;2022-07-30T01:52:28;7.38;;;2.97;;
7529;SDS011;3806;52.270;10.544;2022-07-30T01:54:57;8.88;;;3.60;;
7529;SDS011;3806;52.270;10.544;2022-07-30T01:57:25;6.15;;;2.50;;
7529;SDS011;3806;52.270;10.544;2022-07-30T01:59:56;4.97;;;2.88;;
7529;SDS011;3806;52.270;10.544;2022-07-30T02:02:25;5.00;;;3.13;;
7529;SDS011;3806;52.270;10.544;2022-07-30T02:04:50;6.95;;;2.83;;
7529;SDS011;3806;52.270;10.544;2022-07-30T02:07:22;5.78;;;2.33;;
7529;SDS011;3806;52.270;10.544;2022-07-30T02:10:05;3.72;;;2.67;;
7529;SDS011;3806;52.270;10.544;2022-07-30T02:12:35;5.15;;;3.20;;
7529;SDS011;3806;52.270;10.544;2022-07-30T02:17:53;5.50;;;2.47;;
7529;SDS011;3806;52.270;10.544;2022-07-30T02:20:27;7.15;;;3.35;;
7529;SDS011;3806;52.270;10.544;2022-07-30T02:22:59;6.10;;;2.47;;
7529;SDS011;3806;52.270;10.544;2022-07-30T02:25:28;6.55;;;3.05;;
7529;SDS011;3806;52.270;10.544;2022-07-30T02:28:02;4.32;;;2.60;;
7529;SDS011;3806;52.270;10.544;2022-07-30T02:30:33;5.75;;;2.83;;
7529;SDS011;3806;52.270;10.544;2022-07-30T02:33:02;6.05;;;3.33;;
7529;SDS011;3806;52.270;10.544;2022-07-30T02:35:30;9.18;;;2.80;;
7529;SDS011;3806;52.270;10.544;2022-07-30T02:37:57;5.55;;;2.95;;
7529;SDS011;3806;52.270;10.544;2022-07-30T02:40:24;3.63;;;2.83;;
7529;SDS011;3806;52.270;10.544;2022-07-30T02:42:52;5.05;;;3.08;;
7529;SDS011;3806;52.270;10.544;2022-07-30T02:45:18;5.72;;;3.17;;
7529;SDS011;3806;52.270;10.544;2022-07-30T02:47:51;5.22;;;3.38;;
7529;SDS011;3806;52.270;10.544;2022-07-30T02:50:19;6.25;;;3.33;;
7529;SDS011;3806;52.270;10.544;2022-07-30T02:52:48;7.50;;;3.58;;
7529;SDS011;3806;52.270;10.544;2022-07-30T02:55:17;6.28;;;3.63;;
7529;SDS011;3806;52.270;10.544;2022-07-30T02:57:43;6.30;;;3.58;;
7529;SDS011;3806;52.270;10.544;2022-07-30T03:00:10;6.65;;;2.80;;
7529;SDS011;3806;52.270;10.544;2022-07-30T03:02:38;6.25;;;3.60;;
7529;SDS011;3806;52.270;10.544;2022-07-30T03:05:04;7.68;;;3.40;;
7529;SDS011;3806;52.270;10.544;2022-07-30T03:07:32;4.25;;;3.13;;
7529;SDS011;3806;52.270;10.544;2022-07-30T03:10:00;4.18;;;2.85;;
7529;SDS011;3806;52.270;10.544;2022-07-30T03:12:28;6.57;;;4.03;;
7529;SDS011;3806;52.270;10.544;2022-07-30T03:14:55;5.50;;;3.75;;
7529;SDS011;3806;52.270;10.544;2022-07-30T03:17:21;6.18;;;4.25;;
7529;SDS011;3806;52.270;10.544;2022-07-30T03:19:49;6.38;;;4.25;;
7529;SDS011;3806;52.270;10.544;2022-07-30T03:22:17;6.88;;;3.80;;
7529;SDS011;3806;52.270;10.544;2022-07-30T03:24:44;8.07;;;3.60;;
7529;SDS011;3806;52.270;10.544;2022-07-30T03:27:12;7.18;;;3.40;;
7529;SDS011;3806;52.270;10.544;2022-07-30T03:29:39;6.72;;;3.28;;
7529;SDS011;3806;52.270;10.544;2022-07-30T03:32:06;9.60;;;3.75;;
7529;SDS011;3806;52.270;10.544;2022-07-30T03:34:34;9.27;;;3.95;;
7529;SDS011;3806;52.270;10.544;2022-07-30T03:37:03;9.20;;;4.45;;
7529;SDS011;3806;52.270;10.544;2022-07-30T03:39:34;7.75;;;4.22;;
7529;SDS011;3806;52.270;10.544;2022-07-30T03:42:01;7.45;;;3.78;;
7529;SDS011;3806;52.270;10.544;2022-07-30T03:44:29;5.00;;;3.15;;
7529;SDS011;3806;52.270;10.544;2022-07-30T03:46:56;8.98;;;3.78;;
7529;SDS011;3806;52.270;10.544;2022-07-30T03:49:24;6.88;;;3.67;;
7529;SDS011;3806;52.270;10.544;2022-07-30T03:51:50;4.07;;;3.33;;
7529;SDS011;3806;52.270;10.544;2022-07-30T03:54:17;8.82;;;4.28;;
7529;SDS011;3806;52.270;10.544;2022-07-30T03:56:43;5.20;;;3.25;;
7529;SDS011;3806;52.270;10.544;2022-07-30T03:59:09;7.53;;;3.88;;
7529;SDS011;3806;52.270;10.544;2022-07-30T04:01:36;6.53;;;3.70;;
7529;SDS011;3806;52.270;10.544;2022-07-30T04:04:11;5.50;;;3.75;;
7529;SDS011;3806;52.270;10.544;2022-07-30T04:06:37;10.40;;;4.33;;
7529;SDS011;3806;52.270;10.544;2022-07-30T04:09:10;4.40;;;3.17;;
7529;SDS011;3806;52.270;10.544;2022-07-30T04:11:36;6.38;;;3.75;;
7529;SDS011;3806;52.270;10.544;2022-07-30T04:14:03;7.45;;;3.97;;
7529;SDS011;3806;52.270;10.544;2022-07-30T04:16:41;4.22;;;3.33;;
7529;SDS011;3806;52.270;10.544;2022-07-30T04:19:09;3.90;;;3.30;;
7529;SDS011;3806;52.270;10.544;2022-07-30T04:21:40;7.63;;;3.25;;
7529;SDS011;3806;52.270;10.544;2022-07-30T04:24:06;7.57;;;3.63;;
7529;SDS011;3806;52.270;10.544;2022-07-30T04:26:35;6.85;;;3.53;;
7529;SDS011;3806;52.270;10.544;2022-07-30T04:29:03;8.05;;;3.88;;
7529;SDS011;3806;52.270;10.544;2022-07-30T04:31:31;5.47;;;3.60;;
7529;SDS011;3806;52.270;10.544;2022-07-30T04:33:59;5.55;;;3.03;;
7529;SDS011;3806;52.270;10.544;2022-07-30T04:36:29;7.25;;;3.38;;
7529;SDS011;3806;52.270;10.544;2022-07-30T04:38:59;6.07;;;3.65;;
7529;SDS011;3806;52.270;10.544;2022-07-30T04:41:25;7.65;;;3.60;;
7529;SDS011;3806;52.270;10.544;2022-07-30T04:43:51;5.63;;;3.55;;
7529;SDS011;3806;52.270;10.544;2022-07-30T04:46:17;6.03;;;3.70;;
7529;SDS011;3806;52.270;10.544;2022-07-30T04:48:42;4.78;;;3.15;;
7529;SDS011;3806;52.270;10.544;2022-07-30T04:51:11;5.18;;;3.53;;
7529;SDS011;3806;52.270;10.544;2022-07-30T04:53:41;6.75;;;3.47;;
7529;SDS011;3806;52.270;10.544;2022-07-30T04:56:07;4.30;;;3.03;;
7529;SDS011;3806;52.270;10.544;2022-07-30T04:58:35;5.30;;;3.25;;
7529;SDS011;3806;52.270;10.544;2022-07-30T05:01:01;5.78;;;3.42;;
7529;SDS011;3806;52.270;10.544;2022-07-30T05:03:28;6.40;;;3.50;;
7529;SDS011;3806;52.270;10.544;2022-07-30T05:05:56;9.00;;;3.60;;
7529;SDS011;3806;52.270;10.544;2022-07-30T05:08:25;5.50;;;3.88;;
7529;SDS011;3806;52.270;10.544;2022-07-30T05:10:52;5.20;;;3.42;;
7529;SDS011;3806;52.270;10.544;2022-07-30T05:13:18;5.30;;;3.40;;
7529;SDS011;3806;52.270;10.544;2022-07-30T05:15:43;7.70;;;3.45;;
7529;SDS011;3806;52.270;10.544;2022-07-30T05:18:09;6.55;;;3.35;;
7529;SDS011;3806;52.270;10.544;2022-07-30T05:20:36;5.18;;;3.35;;
7529;SDS011;3806;52.270;10.544;2022-07-30T05:23:02;4.60;;;3.30;;
7529;SDS011;3806;52.270;10.544;2022-07-30T05:25:28;4.53;;;3.30;;
7529;SDS011;3806;52.270;10.544;2022-07-30T05:27:54;6.72;;;3.65;;
7529;SDS011;3806;52.270;10.544;2022-07-30T05:30:20;9.00;;;4.13;;
7529;SDS011;3806;52.270;10.544;2022-07-30T05:32:46;5.75;;;3.25;;
7529;SDS011;3806;52.270;10.544;2022-07-30T05:35:12;5.45;;;3.05;;
7529;SDS011;3806;52.270;10.544;2022-07-30T05:37:38;6.68;;;3.70;;
7529;SDS011;3806;52.270;10.544;2022-07-30T05:40:03;5.65;;;3.63;;
7529;SDS011;3806;52.270;10.544;2022-07-30T05:42:29;4.30;;;3.50;;
7529;SDS011;3806;52.270;10.544;2022-07-30T05:44:55;6.72;;;3.40;;
7529;SDS011;3806;52.270;10.544;2022-07-30T05:47:21;7.00;;;3.35;;
7529;SDS011;3806;52.270;10.544;2022-07-30T05:49:47;6.68;;;3.28;;
7529;SDS011;3806;52.270;10.544;2022-07-30T05:52:12;7.22;;;4.53;;
7529;SDS011;3806;52.270;10.544;2022-07-30T05:54:38;6.43;;;3.90;;
7529;SDS011;3806;52.270;10.544;2022-07-30T05:57:04;5.05;;;3.53;;
7529;SDS011;3806;52.270;10.544;2022-07-30T05:59:30;6.30;;;4.00;;
7529;SDS011;3806;52.270;10.544;2022-07-30T06:01:55;4.95;;;3.15;;
7529;SDS011;3806;52.270;10.544;2022-07-30T06:04:21;8.20;;;3.78;;
7529;SDS011;3806;52.270;10.544;2022-07-30T06:06:47;7.50;;;3.53;;
7529;SDS011;3806;52.270;10.544;2022-07-30T06:09:12;5.25;;;3.58;;
7529;SDS011;3806;52.270;10.544;2022-07-30T06:11:38;5.65;;;3.30;;
7529;SDS011;3806;52.270;10.544;2022-07-30T06:14:04;5.47;;;3.17;;
7529;SDS011;3806;52.270;10.544;2022-07-30T06:16:29;5.50;;;3.50;;
7529;SDS011;3806;52.270;10.544;2022-07-30T06:18:55;3.65;;;2.90;;
7529;SDS011;3806;52.270;10.544;2022-07-30T06:21:20;6.65;;;3.85;;
7529;SDS011;3806;52.270;10.544;2022-07-30T06:23:46;6.32;;;3.53;;
7529;SDS011;3806;52.270;10.544;2022-07-30T06:26:12;9.55;;;3.92;;
7529;SDS011;3806;52.270;10.544;2022-07-30T06:28:39;7.57;;;3.97;;
7529;SDS011;3806;52.270;10.544;2022-07-30T06:31:05;7.00;;;3.72;;
7529;SDS011;3806;52.270;10.544;2022-07-30T06:33:31;6.13;;;3.33;;
7529;SDS011;3806;52.270;10.544;2022-07-30T06:35:57;4.25;;;3.03;;
7529;SDS011;3806;52.270;10.544;2022-07-30T06:38:23;4.68;;;3.13;;
7529;SDS011;3806;52.270;10.544;2022-07-30T06:40:48;5.47;;;3.30;;
7529;SDS011;3806;52.270;10.544;2022-07-30T06:43:14;8.82;;;3.22;;
7529;SDS011;3806;52.270;10.544;2022-07-30T06:45:40;5.63;;;3.25;;
7529;SDS011;3806;52.270;10.544;2022-07-30T06:48:05;6.32;;;3.20;;
7529;SDS011;3806;52.270;10.544;2022-07-30T06:50:31;4.75;;;3.08;;
7529;SDS011;3806;52.270;10.544;2022-07-30T06:52:57;5.43;;;3.30;;
7529;SDS011;3806;52.270;10.544;2022-07-30T06:55:22;5.53;;;3.40;;
7529;SDS011;3806;52.270;10.544;2022-07-30T06:57:48;6.40;;;3.42;;
7529;SDS011;3806;52.270;10.544;2022-07-30T07:00:14;4.72;;;3.25;;
7529;SDS011;3806;52.270;10.544;2022-07-30T07:02:39;4.95;;;3.55;;
7529;SDS011;3806;52.270;10.544;2022-07-30T07:05:06;4.65;;;3.42;;
7529;SDS011;3806;52.270;10.544;2022-07-30T07:07:33;4.85;;;3.28;;
7529;SDS011;3806;52.270;10.544;2022-07-30T07:09:59;4.80;;;3.63;;
7529;SDS011;3806;52.270;10.544;2022-07-30T07:12:24;7.65;;;3.50;;
7529;SDS011;3806;52.270;10.544;2022-07-30T07:14:50;7.72;;;3.47;;
7529;SDS011;3806;52.270;10.544;2022-07-30T07:17:16;5.78;;;3.95;;
7529;SDS011;3806;52.270;10.544;2022-07-30T07:19:42;3.10;;;2.63;;
7529;SDS011;3806;52.270;10.544;2022-07-30T07:22:07;6.80;;;3.72;;
7529;SDS011;3806;52.270;10.544;2022-07-30T07:24:33;7.63;;;3.47;;
7529;SDS011;3806;52.270;10.544;2022-07-30T07:26:58;7.75;;;3.70;;
7529;SDS011;3806;52.270;10.544;2022-07-30T07:29:24;5.47;;;3.78;;
7529;SDS011;3806;52.270;10.544;2022-07-30T07:31:50;6.63;;;2.92;;
7529;SDS011;3806;52.270;10.544;2022-07-30T07:34:15;5.70;;;3.47;;
7529;SDS011;3806;52.270;10.544;2022-07-30T07:36:41;4.43;;;3.28;;
7529;SDS011;3806;52.270;10.544;2022-07-30T07:39:06;3.88;;;2.85;;
7529;SDS011;3806;52.270;10.544;2022-07-30T07:41:33;3.65;;;2.92;;
7529;SDS011;3806;52.270;10.544;2022-07-30T07:44:03;4.20;;;2.88;;
7529;SDS011;3806;52.270;10.544;2022-07-30T07:46:29;5.20;;;2.92;;
7529;SDS011;3806;52.270;10.544;2022-07-30T07:48:55;4.03;;;2.80;;
7529;SDS011;3806;52.270;10.544;2022-07-30T07:51:21;5.70;;;2.80;;
7529;SDS011;3806;52.270;10.544;2022-07-30T07:53:47;4.55;;;2.70;;
7529;SDS011;3806;52.270;10.544;2022-07-30T07:56:12;7.03;;;2.60;;
7529;SDS011;3806;52.270;10.544;2022-07-30T07:58:38;4.22;;;2.15;;
7529;SDS011;3806;52.270;10.544;2022-07-30T08:01:04;2.50;;;2.03;;
7529;SDS011;3806;52.270;10.544;2022-07-30T08:03:30;5.35;;;2.65;;
7529;SDS011;3806;52.270;10.544;2022-07-30T08:05:56;5.25;;;2.22;;
7529;SDS011;3806;52.270;10.544;2022-07-30T08:08:22;4.85;;;2.25;;
7529;SDS011;3806;52.270;10.544;2022-07-30T08:10:48;5.65;;;2.38;;
7529;SDS011;3806;52.270;10.544;2022-07-30T08:13:13;4.80;;;2.35;;
7529;SDS011;3806;52.270;10.544;2022-07-30T08:15:39;3.75;;;2.33;;
7529;SDS011;3806;52.270;10.544;2022-07-30T08:18:05;4.00;;;2.15;;
7529;SDS011;3806;52.270;10.544;2022-07-30T08:20:35;8.45;;;2.10;;
7529;SDS011;3806;52.270;10.544;2022-07-30T08:23:02;4.22;;;2.03;;
7529;SDS011;3806;52.270;10.544;2022-07-30T08:25:28;3.00;;;1.80;;
7529;SDS011;3806;52.270;10.544;2022-07-30T08:27:53;4.65;;;2.22;;
7529;SDS011;3806;52.270;10.544;2022-07-30T08:30:19;3.22;;;2.13;;
7529;SDS011;3806;52.270;10.544;2022-07-30T08:32:45;3.65;;;1.90;;
7529;SDS011;3806;52.270;10.544;2022-07-30T08:35:11;2.10;;;1.70;;
7529;SDS011;3806;52.270;10.544;2022-07-30T08:37:37;4.47;;;2.10;;
7529;SDS011;3806;52.270;10.544;2022-07-30T08:40:05;3.65;;;2.25;;
7529;SDS011;3806;52.270;10.544;2022-07-30T08:42:32;2.38;;;1.67;;
7529;SDS011;3806;52.270;10.544;2022-07-30T08:44:59;4.32;;;2.13;;
7529;SDS011;3806;52.270;10.544;2022-07-30T08:47:27;3.40;;;2.05;;
7529;SDS011;3806;52.270;10.544;2022-07-30T08:49:58;4.03;;;2.20;;
7529;SDS011;3806;52.270;10.544;2022-07-30T08:52:30;4.88;;;2.10;;
7529;SDS011;3806;52.270;10.544;2022-07-30T08:54:57;3.63;;;2.20;;
7529;SDS011;3806;52.270;10.544;2022-07-30T08:57:23;3.63;;;2.75;;
7529;SDS011;3806;52.270;10.544;2022-07-30T08:59:49;3.45;;;2.38;;
7529;SDS011;3806;52.270;10.544;2022-07-30T09:02:15;4.82;;;2.15;;
7529;SDS011;3806;52.270;10.544;2022-07-30T09:04:41;5.10;;;2.95;;
7529;SDS011;3806;52.270;10.544;2022-07-30T09:07:07;2.53;;;2.10;;
7529;SDS011;3806;52.270;10.544;2022-07-30T09:09:32;3.25;;;2.10;;
7529;SDS011;3806;52.270;10.544;2022-07-30T09:11:58;5.03;;;2.63;;
7529;SDS011;3806;52.270;10.544;2022-07-30T09:14:23;2.97;;;2.13;;
7529;SDS011;3806;52.270;10.544;2022-07-30T09:16:54;3.28;;;2.17;;
7529;SDS011;3806;52.270;10.544;2022-07-30T09:19:21;3.72;;;2.85;;
7529;SDS011;3806;52.270;10.544;2022-07-30T09:21:54;3.92;;;2.47;;
7529;SDS011;3806;52.270;10.544;2022-07-30T09:24:21;5.60;;;2.25;;
7529;SDS011;3806;52.270;10.544;2022-07-30T09:29:28;4.00;;;2.88;;
7529;SDS011;3806;52.270;10.544;2022-07-30T09:34:23;3.03;;;2.40;;
7529;SDS011;3806;52.270;10.544;2022-07-30T09:36:59;3.03;;;2.22;;
7529;SDS011;3806;52.270;10.544;2022-07-30T09:39:34;4.57;;;2.20;;
7529;SDS011;3806;52.270;10.544;2022-07-30T09:42:02;4.85;;;2.00;;
7529;SDS011;3806;52.270;10.544;2022-07-30T09:44:40;2.83;;;2.15;;
7529;SDS011;3806;52.270;10.544;2022-07-30T09:47:06;3.30;;;2.33;;
7529;SDS011;3806;52.270;10.544;2022-07-30T09:49:31;4.32;;;2.35;;
7529;SDS011;3806;52.270;10.544;2022-07-30T09:51:57;5.00;;;2.38;;
7529;SDS011;3806;52.270;10.544;2022-07-30T09:54:44;3.20;;;2.65;;
7529;SDS011;3806;52.270;10.544;2022-07-30T09:57:12;4.40;;;2.22;;
7529;SDS011;3806;52.270;10.544;2022-07-30T09:59:38;3.85;;;2.13;;
7529;SDS011;3806;52.270;10.544;2022-07-30T10:02:03;4.90;;;2.13;;
7529;SDS011;3806;52.270;10.544;2022-07-30T10:04:31;4.15;;;2.22;;
7529;SDS011;3806;52.270;10.544;2022-07-30T10:06:57;3.47;;;2.00;;
7529;SDS011;3806;52.270;10.544;2022-07-30T10:09:31;5.30;;;2.00;;
7529;SDS011;3806;52.270;10.544;2022-07-30T10:12:00;4.37;;;2.30;;
7529;SDS011;3806;52.270;10.544;2022-07-30T10:14:29;3.40;;;2.40;;
7529;SDS011;3806;52.270;10.544;2022-07-30T10:16:57;2.80;;;2.17;;
7529;SDS011;3806;52.270;10.544;2022-07-30T10:19:23;4.60;;;1.90;;
7529;SDS011;3806;52.270;10.544;2022-07-30T10:21:50;2.65;;;1.73;;
7529;SDS011;3806;52.270;10.544;2022-07-30T10:24:17;2.83;;;2.13;;
7529;SDS011;3806;52.270;10.544;2022-07-30T10:26:47;2.38;;;1.95;;
7529;SDS011;3806;52.270;10.544;2022-07-30T10:29:14;2.30;;;1.80;;
7529;SDS011;3806;52.270;10.544;2022-07-30T10:31:43;3.63;;;1.98;;
7529;SDS011;3806;52.270;10.544;2022-07-30T10:34:10;3.85;;;1.70;;
7529;SDS011;3806;52.270;10.544;2022-07-30T10:36:39;2.92;;;1.88;;
7529;SDS011;3806;52.270;10.544;2022-07-30T10:39:07;3.45;;;1.98;;
7529;SDS011;3806;52.270;10.544;2022-07-30T10:47:12;3.97;;;1.90;;
7529;SDS011;3806;52.270;10.544;2022-07-30T10:50:01;3.03;;;1.90;;
7529;SDS011;3806;52.270;10.544;2022-07-30T10:55:19;4.05;;;1.85;;
7529;SDS011;3806;52.270;10.544;2022-07-30T10:57:57;3.95;;;1.50;;
7529;SDS011;3806;52.270;10.544;2022-07-30T11:00:23;3.13;;;1.80;;
7529;SDS011;3806;52.270;10.544;2022-07-30T11:05:40;4.80;;;2.20;;
7529;SDS011;3806;52.270;10.544;2022-07-30T11:10:55;3.40;;;1.98;;
7529;SDS011;3806;52.270;10.544;2022-07-30T11:16:19;4.40;;;2.03;;
7529;SDS011;3806;52.270;10.544;2022-07-30T11:19:01;2.92;;;2.10;;
7529;SDS011;3806;52.270;10.544;2022-07-30T11:21:40;2.67;;;1.70;;
7529;SDS011;3806;52.270;10.544;2022-07-30T11:24:13;4.47;;;1.90;;
7529;SDS011;3806;52.270;10.544;2022-07-30T11:27:32;2.80;;;2.08;;
7529;SDS011;3806;52.270;10.544;2022-07-30T11:30:05;3.38;;;2.25;;
7529;SDS011;3806;52.270;10.544;2022-07-30T11:33:38;3.80;;;1.80;;
7529;SDS011;3806;52.270;10.544;2022-07-30T11:35:38;5.47;;;1.90;;
7529;SDS011;3806;52.270;10.544;2022-07-30T11:38:07;3.38;;;1.60;;
7529;SDS011;3806;52.270;10.544;2022-07-30T11:43:20;2.70;;;2.05;;
7529;SDS011;3806;52.270;10.544;2022-07-30T11:51:02;2.58;;;2.05;;
7529;SDS011;3806;52.270;10.544;2022-07-30T11:53:28;5.03;;;2.13;;
7529;SDS011;3806;52.270;10.544;2022-07-30T11:55:58;3.20;;;2.30;;
7529;SDS011;3806;52.270;10.544;2022-07-30T12:00:59;4.40;;;1.95;;
7529;SDS011;3806;52.270;10.544;2022-07-30T12:03:30;2.65;;;2.13;;
7529;SDS011;3806;52.270;10.544;2022-07-30T12:06:02;4.30;;;2.90;;
7529;SDS011;3806;52.270;10.544;2022-07-30T12:08:41;2.22;;;2.00;;
7529;SDS011;3806;52.270;10.544;2022-07-30T12:11:08;4.50;;;1.90;;
7529;SDS011;3806;52.270;10.544;2022-07-30T12:13:34;3.15;;;2.28;;
7529;SDS011;3806;52.270;10.544;2022-07-30T12:16:02;3.50;;;1.88;;
7529;SDS011;3806;52.270;10.544;2022-07-30T12:18:32;3.55;;;2.08;;
7529;SDS011;3806;52.270;10.544;2022-07-30T12:20:58;2.70;;;2.08;;
7529;SDS011;3806;52.270;10.544;2022-07-30T12:23:28;3.97;;;2.08;;
7529;SDS011;3806;52.270;10.544;2022-07-30T12:25:55;2.20;;;1.75;;
7529;SDS011;3806;52.270;10.544;2022-07-30T12:28:22;2.22;;;2.00;;
7529;SDS011;3806;52.270;10.544;2022-07-30T12:30:50;2.97;;;2.33;;
7529;SDS011;3806;52.270;10.544;2022-07-30T12:33:16;2.17;;;1.88;;
7529;SDS011;3806;52.270;10.544;2022-07-30T12:35:47;3.30;;;1.80;;
7529;SDS011;3806;52.270;10.544;2022-07-30T12:38:14;4.53;;;2.03;;
7529;SDS011;3806;52.270;10.544;2022-07-30T12:41:01;4.93;;;1.92;;
7529;SDS011;3806;52.270;10.544;2022-07-30T12:43:47;2.47;;;1.77;;
7529;SDS011;3806;52.270;10.544;2022-07-30T12:46:20;3.60;;;1.92;;
7529;SDS011;3806;52.270;10.544;2022-07-30T12:51:21;2.40;;;1.80;;
7529;SDS011;3806;52.270;10.544;2022-07-30T12:53:48;3.42;;;1.80;;
7529;SDS011;3806;52.270;10.544;2022-07-30T12:58:44;2.60;;;1.83;;
7529;SDS011;3806;52.270;10.544;2022-07-30T13:01:11;4.30;;;1.83;;
7529;SDS011;3806;52.270;10.544;2022-07-30T13:03:37;3.50;;;1.80;;
7529;SDS011;3806;52.270;10.544;2022-07-30T13:06:10;1.98;;;1.63;;
7529;SDS011;3806;52.270;10.544;2022-07-30T13:08:47;2.47;;;2.03;;
7529;SDS011;3806;52.270;10.544;2022-07-30T13:11:21;3.63;;;2.42;;
7529;SDS011;3806;52.270;10.544;2022-07-30T13:13:52;3.05;;;2.00;;
7529;SDS011;3806;52.270;10.544;2022-07-30T13:16:18;3.08;;;2.10;;
7529;SDS011;3806;52.270;10.544;2022-07-30T13:18:44;5.13;;;2.25;;
7529;SDS011;3806;52.270;10.544;2022-07-30T13:21:10;6.15;;;2.38;;
7529;SDS011;3806;52.270;10.544;2022-07-30T13:23:36;3.05;;;2.20;;
7529;SDS011;3806;52.270;10.544;2022-07-30T13:26:04;4.40;;;1.98;;
7529;SDS011;3806;52.270;10.544;2022-07-30T13:28:31;4.95;;;2.15;;
7529;SDS011;3806;52.270;10.544;2022-07-30T13:30:58;3.28;;;2.30;;
7529;SDS011;3806;52.270;10.544;2022-07-30T13:33:24;2.60;;;2.03;;
7529;SDS011;3806;52.270;10.544;2022-07-30T13:35:50;2.95;;;1.80;;
7529;SDS011;3806;52.270;10.544;2022-07-30T13:38:15;3.17;;;1.95;;
7529;SDS011;3806;52.270;10.544;2022-07-30T13:40:41;5.35;;;2.30;;
7529;SDS011;3806;52.270;10.544;2022-07-30T13:43:07;3.30;;;1.90;;
7529;SDS011;3806;52.270;10.544;2022-07-30T13:45:33;3.10;;;2.05;;
7529;SDS011;3806;52.270;10.544;2022-07-30T13:47:59;2.67;;;2.00;;
7529;SDS011;3806;52.270;10.544;2022-07-30T13:50:25;2.50;;;2.03;;
7529;SDS011;3806;52.270;10.544;2022-07-30T13:52:51;3.47;;;2.38;;
7529;SDS011;3806;52.270;10.544;2022-07-30T13:55:17;3.80;;;1.95;;
7529;SDS011;3806;52.270;10.544;2022-07-30T13:57:42;2.72;;;1.85;;
7529;SDS011;3806;52.270;10.544;2022-07-30T14:00:08;2.63;;;1.92;;
7529;SDS011;3806;52.270;10.544;2022-07-30T14:02:35;4.38;;;2.08;;
7529;SDS011;3806;52.270;10.544;2022-07-30T14:05:01;4.15;;;1.60;;
7529;SDS011;3806;52.270;10.544;2022-07-30T14:07:33;3.80;;;2.25;;
7529;SDS011;3806;52.270;10.544;2022-07-30T14:10:00;4.55;;;2.20;;
7529;SDS011;3806;52.270;10.544;2022-07-30T14:12:26;3.10;;;2.03;;
7529;SDS011;3806;52.270;10.544;2022-07-30T14:14:51;3.42;;;1.77;;
7529;SDS011;3806;52.270;10.544;2022-07-30T14:17:17;3.55;;;2.20;;
7529;SDS011;3806;52.270;10.544;2022-07-30T14:19:43;2.35;;;2.10;;
7529;SDS011;3806;52.270;10.544;2022-07-30T14:22:09;3.35;;;2.17;;
7529;SDS011;3806;52.270;10.544;2022-07-30T14:24:34;2.88;;;1.80;;
7529;SDS011;3806;52.270;10.544;2022-07-30T14:27:00;4.05;;;1.85;;
7529;SDS011;3806;52.270;10.544;2022-07-30T14:29:26;2.47;;;2.03;;
7529;SDS011;3806;52.270;10.544;2022-07-30T14:31:52;2.65;;;1.63;;
7529;SDS011;3806;52.270;10.544;2022-07-30T14:34:18;2.63;;;1.80;;
7529;SDS011;3806;52.270;10.544;2022-07-30T14:36:44;2.40;;;1.92;;
7529;SDS011;3806;52.270;10.544;2022-07-30T14:39:09;3.95;;;2.40;;
7529;SDS011;3806;52.270;10.544;2022-07-30T14:41:35;3.20;;;2.03;;
7529;SDS011;3806;52.270;10.544;2022-07-30T14:44:03;2.55;;;2.08;;
7529;SDS011;3806;52.270;10.544;2022-07-30T14:46:29;2.53;;;1.77;;
7529;SDS011;3806;52.270;10.544;2022-07-30T14:48:55;2.00;;;1.80;;
7529;SDS011;3806;52.270;10.544;2022-07-30T14:51:20;3.80;;;1.67;;
7529;SDS011;3806;52.270;10.544;2022-07-30T14:53:46;2.92;;;1.70;;
7529;SDS011;3806;52.270;10.544;2022-07-30T14:56:14;3.28;;;1.90;;
7529;SDS011;3806;52.270;10.544;2022-07-30T14:58:43;2.78;;;2.00;;
7529;SDS011;3806;52.270;10.544;2022-07-30T15:01:09;3.00;;;2.00;;
7529;SDS011;3806;52.270;10.544;2022-07-30T15:03:35;2.20;;;1.80;;
7529;SDS011;3806;52.270;10.544;2022-07-30T15:06:00;3.40;;;2.33;;
7529;SDS011;3806;52.270;10.544;2022-07-30T15:08:27;8.25;;;2.00;;
7529;SDS011;3806;52.270;10.544;2022-07-30T15:10:53;2.85;;;1.92;;
7529;SDS011;3806;52.270;10.544;2022-07-30T15:13:18;3.72;;;1.92;;
7529;SDS011;3806;52.270;10.544;2022-07-30T15:15:44;2.05;;;1.60;;
7529;SDS011;3806;52.270;10.544;2022-07-30T15:18:10;2.42;;;1.65;;
7529;SDS011;3806;52.270;10.544;2022-07-30T15:20:36;3.38;;;1.85;;
7529;SDS011;3806;52.270;10.544;2022-07-30T15:23:01;2.80;;;1.88;;
7529;SDS011;3806;52.270;10.544;2022-07-30T15:25:27;3.35;;;2.00;;
7529;SDS011;3806;52.270;10.544;2022-07-30T15:27:53;3.65;;;1.92;;
7529;SDS011;3806;52.270;10.544;2022-07-30T15:30:18;3.00;;;2.13;;
7529;SDS011;3806;52.270;10.544;2022-07-30T15:32:44;4.10;;;2.05;;
7529;SDS011;3806;52.270;10.544;2022-07-30T15:35:10;2.75;;;2.08;;
7529;SDS011;3806;52.270;10.544;2022-07-30T15:37:36;2.72;;;1.83;;
7529;SDS011;3806;52.270;10.544;2022-07-30T15:40:03;2.78;;;1.90;;
7529;SDS011;3806;52.270;10.544;2022-07-30T15:42:29;3.65;;;1.85;;
7529;SDS011;3806;52.270;10.544;2022-07-30T15:44:55;3.40;;;1.80;;
7529;SDS011;3806;52.270;10.544;2022-07-30T15:47:21;2.38;;;1.63;;